sensor_id;sensor_type;location;lat;lon;timestamp;pressure;altitude;pressure_sealevel;temperature;humidity
11678;BME280;5895;41.950;24.372;2023-06-26T00:00:12;86774.19;;;16.31;100.00
11678;BME280;5895;41.950;24.372;2023-06-26T00:02:40;86766.59;;;16.30;100.00
11678;BME280;5895;41.950;24.372;2023-06-26T00:05:08;86775.50;;;16.29;100.00
11678;BME280;5895;41.950;24.372;2023-06-26T00:07:35;86773.66;;;16.29;100.00
11678;BME280;5895;41.950;24.372;2023-06-26T00:10:03;86769.47;;;16.28;100.00
11678;BME280;5895;41.950;24.372;2023-06-26T00:12:31;86771.56;;;16.26;100.00
11678;BME280;5895;41.950;24.372;2023-06-26T00:14:58;86776.78;;;16.26;100.00
11678;BME280;5895;41.950;24.372;2023-06-26T00:17:27;86764.75;;;16.25;100.00
11678;BME280;5895;41.950;24.372;2023-06-26T00:19:54;86772.59;;;16.25;100.00
11678;BME280;5895;41.950;24.372;2023-06-26T00:22:21;86769.97;;;16.25;100.00
11678;BME280;5895;41.950;24.372;2023-06-26T00:24:48;86761.06;;;16.26;100.00
11678;BME280;5895;41.950;24.372;2023-06-26T00:27:16;86765.25;;;16.27;100.00
11678;BME280;5895;41.950;24.372;2023-06-26T00:29:43;86754.28;;;16.25;100.00
11678;BME280;5895;41.950;24.372;2023-06-26T00:32:10;86752.97;;;16.23;100.00
11678;BME280;5895;41.950;24.372;2023-06-26T00:34:38;86752.72;;;16.24;100.00
11678;BME280;5895;41.950;24.372;2023-06-26T00:37:06;86754.81;;;16.22;100.00
11678;BME280;5895;41.950;24.372;2023-06-26T00:39:33;86757.44;;;16.22;100.00
11678;BME280;5895;41.950;24.372;2023-06-26T00:42:00;86753.22;;;16.21;100.00
11678;BME280;5895;41.950;24.372;2023-06-26T00:44:27;86758.19;;;16.18;100.00
11678;BME280;5895;41.950;24.372;2023-06-26T00:46:54;86751.41;;;16.17;100.00
11678;BME280;5895;41.950;24.372;2023-06-26T00:49:22;86755.81;;;16.16;100.00
11678;BME280;5895;41.950;24.372;2023-06-26T00:51:51;86759.00;;;16.18;100.00
11678;BME280;5895;41.950;24.372;2023-06-26T00:54:19;86750.09;;;16.19;100.00
11678;BME280;5895;41.950;24.372;2023-06-26T00:56:48;86747.72;;;16.18;100.00
11678;BME280;5895;41.950;24.372;2023-06-26T00:59:15;86747.72;;;16.18;100.00
11678;BME280;5895;41.950;24.372;2023-06-26T01:01:42;86748.25;;;16.14;100.00
11678;BME280;5895;41.950;24.372;2023-06-26T01:04:10;86747.97;;;16.16;100.00
11678;BME280;5895;41.950;24.372;2023-06-26T01:06:43;86745.34;;;16.16;100.00
11678;BME280;5895;41.950;24.372;2023-06-26T01:09:17;86744.06;;;16.19;100.00
11678;BME280;5895;41.950;24.372;2023-06-26T01:11:45;86739.09;;;16.17;100.00
11678;BME280;5895;41.950;24.372;2023-06-26T01:14:13;86742.50;;;16.18;100.00
11678;BME280;5895;41.950;24.372;2023-06-26T01:16:41;86732.25;;;16.16;100.00
11678;BME280;5895;41.950;24.372;2023-06-26T01:19:18;86734.38;;;16.14;100.00
11678;BME280;5895;41.950;24.372;2023-06-26T01:21:51;86737.00;;;16.14;100.00
11678;BME280;5895;41.950;24.372;2023-06-26T01:24:25;86740.13;;;16.16;100.00
11678;BME280;5895;41.950;24.372;2023-06-26T01:26:59;86743.28;;;16.18;100.00
11678;BME280;5895;41.950;24.372;2023-06-26T01:29:30;86739.63;;;16.19;100.00
11678;BME280;5895;41.950;24.372;2023-06-26T01:32:00;86738.81;;;16.19;100.00
11678;BME280;5895;41.950;24.372;2023-06-26T01:34:27;86736.72;;;16.21;100.00
11678;BME280;5895;41.950;24.372;2023-06-26T01:36:56;86726.78;;;16.18;100.00
11678;BME280;5895;41.950;24.372;2023-06-26T01:39:24;86731.25;;;16.17;100.00
11678;BME280;5895;41.950;24.372;2023-06-26T01:41:51;86727.03;;;16.16;100.00
11678;BME280;5895;41.950;24.372;2023-06-26T01:44:26;86729.91;;;16.14;100.00
11678;BME280;5895;41.950;24.372;2023-06-26T01:47:04;86722.06;;;16.09;100.00
11678;BME280;5895;41.950;24.372;2023-06-26T01:49:39;86730.19;;;16.08;100.00
11678;BME280;5895;41.950;24.372;2023-06-26T01:52:19;86729.13;;;16.09;100.00
11678;BME280;5895;41.950;24.372;2023-06-26T01:54:54;86731.75;;;16.09;100.00
11678;BME280;5895;41.950;24.372;2023-06-26T01:57:22;86730.19;;;16.08;100.00
11678;BME280;5895;41.950;24.372;2023-06-26T01:59:54;86735.41;;;16.08;100.00
11678;BME280;5895;41.950;24.372;2023-06-26T02:02:23;86728.63;;;16.07;100.00
11678;BME280;5895;41.950;24.372;2023-06-26T02:04:51;86726.00;;;16.07;100.00
11678;BME280;5895;41.950;24.372;2023-06-26T02:07:18;86728.88;;;16.05;100.00
11678;BME280;5895;41.950;24.372;2023-06-26T02:09:45;86718.41;;;16.05;100.00
11678;BME280;5895;41.950;24.372;2023-06-26T02:12:12;86722.84;;;16.05;100.00
11678;BME280;5895;41.950;24.372;2023-06-26T02:14:40;86714.47;;;16.03;100.00
11678;BME280;5895;41.950;24.372;2023-06-26T02:17:09;86717.63;;;16.00;100.00
11678;BME280;5895;41.950;24.372;2023-06-26T02:19:36;86714.72;;;15.96;100.00
11678;BME280;5895;41.950;24.372;2023-06-26T02:22:13;86718.38;;;15.95;100.00
11678;BME280;5895;41.950;24.372;2023-06-26T02:24:41;86721.25;;;15.94;100.00
11678;BME280;5895;41.950;24.372;2023-06-26T02:27:08;86715.22;;;15.93;100.00
11678;BME280;5895;41.950;24.372;2023-06-26T02:29:35;86711.81;;;15.93;100.00
11678;BME280;5895;41.950;24.372;2023-06-26T02:32:03;86715.22;;;15.93;100.00
11678;BME280;5895;41.950;24.372;2023-06-26T02:34:31;86718.63;;;15.94;100.00
11678;BME280;5895;41.950;24.372;2023-06-26T02:36:59;86714.72;;;15.91;100.00
11678;BME280;5895;41.950;24.372;2023-06-26T02:39:26;86712.88;;;15.92;100.00
11678;BME280;5895;41.950;24.372;2023-06-26T02:41:53;86717.06;;;15.87;100.00
11678;BME280;5895;41.950;24.372;2023-06-26T02:44:20;86715.47;;;15.86;100.00
11678;BME280;5895;41.950;24.372;2023-06-26T02:46:47;86711.81;;;15.87;100.00
11678;BME280;5895;41.950;24.372;2023-06-26T02:49:14;86708.69;;;15.85;100.00
11678;BME280;5895;41.950;24.372;2023-06-26T02:51:43;86713.91;;;15.85;100.00
11678;BME280;5895;41.950;24.372;2023-06-26T02:54:10;86712.34;;;15.84;100.00
11678;BME280;5895;41.950;24.372;2023-06-26T02:56:37;86714.97;;;15.84;100.00
11678;BME280;5895;41.950;24.372;2023-06-26T02:59:05;86721.75;;;15.85;100.00
11678;BME280;5895;41.950;24.372;2023-06-26T03:01:32;86714.69;;;15.86;100.00
11678;BME280;5895;41.950;24.372;2023-06-26T03:03:59;86719.66;;;15.82;100.00
11678;BME280;5895;41.950;24.372;2023-06-26T03:06:27;86718.63;;;15.83;100.00
11678;BME280;5895;41.950;24.372;2023-06-26T03:08:56;86721.25;;;15.83;100.00
11678;BME280;5895;41.950;24.372;2023-06-26T03:11:23;86715.75;;;15.85;100.00
11678;BME280;5895;41.950;24.372;2023-06-26T03:13:50;86724.88;;;15.82;100.00
11678;BME280;5895;41.950;24.372;2023-06-26T03:16:17;86716.53;;;15.80;100.00
11678;BME280;5895;41.950;24.372;2023-06-26T03:18:44;86721.75;;;15.80;100.00
11678;BME280;5895;41.950;24.372;2023-06-26T03:21:11;86718.09;;;15.81;100.00
11678;BME280;5895;41.950;24.372;2023-06-26T03:23:38;86730.38;;;15.81;100.00
11678;BME280;5895;41.950;24.372;2023-06-26T03:26:07;86727.00;;;15.80;100.00
11678;BME280;5895;41.950;24.372;2023-06-26T03:28:34;86719.91;;;15.76;100.00
11678;BME280;5895;41.950;24.372;2023-06-26T03:31:01;86730.63;;;15.74;100.00
11678;BME280;5895;41.950;24.372;2023-06-26T03:33:28;86728.03;;;15.74;100.00
11678;BME280;5895;41.950;24.372;2023-06-26T03:35:55;86731.16;;;15.76;100.00
11678;BME280;5895;41.950;24.372;2023-06-26T03:38:22;86730.66;;;15.79;100.00
11678;BME280;5895;41.950;24.372;2023-06-26T03:40:51;86732.22;;;15.80;100.00
11678;BME280;5895;41.950;24.372;2023-06-26T03:43:20;86733.28;;;15.84;100.00
11678;BME280;5895;41.950;24.372;2023-06-26T03:45:47;86733.28;;;15.84;100.00
11678;BME280;5895;41.950;24.372;2023-06-26T03:48:14;86731.72;;;15.83;100.00
11678;BME280;5895;41.950;24.372;2023-06-26T03:50:41;86730.13;;;15.82;100.00
11678;BME280;5895;41.950;24.372;2023-06-26T03:53:09;86725.94;;;15.81;100.00
11678;BME280;5895;41.950;24.372;2023-06-26T03:55:36;86730.94;;;15.83;100.00
11678;BME280;5895;41.950;24.372;2023-06-26T03:58:03;86721.25;;;15.83;100.00
11678;BME280;5895;41.950;24.372;2023-06-26T04:00:32;86721.25;;;15.83;100.00
11678;BME280;5895;41.950;24.372;2023-06-26T04:02:59;86731.16;;;15.81;100.00
11678;BME280;5895;41.950;24.372;2023-06-26T04:05:26;86730.13;;;15.82;100.00
11678;BME280;5895;41.950;24.372;2023-06-26T04:07:54;86734.84;;;15.85;100.00
11678;BME280;5895;41.950;24.372;2023-06-26T04:10:21;86727.50;;;15.82;100.00
11678;BME280;5895;41.950;24.372;2023-06-26T04:12:48;86731.44;;;15.85;100.00
11678;BME280;5895;41.950;24.372;2023-06-26T04:15:15;86726.72;;;15.87;100.00
11678;BME280;5895;41.950;24.372;2023-06-26T04:17:44;86717.06;;;15.87;100.00
11678;BME280;5895;41.950;24.372;2023-06-26T04:20:11;86737.19;;;15.87;100.00
11678;BME280;5895;41.950;24.372;2023-06-26T04:22:39;86730.13;;;15.87;100.00
11678;BME280;5895;41.950;24.372;2023-06-26T04:25:06;86724.91;;;15.93;100.00
11678;BME280;5895;41.950;24.372;2023-06-26T04:27:33;86721.00;;;15.95;100.00
11678;BME280;5895;41.950;24.372;2023-06-26T04:30:00;86723.88;;;15.99;100.00
11678;BME280;5895;41.950;24.372;2023-06-26T04:32:27;86726.50;;;15.99;100.00
11678;BME280;5895;41.950;24.372;2023-06-26T04:34:55;86730.41;;;15.96;100.00
11678;BME280;5895;41.950;24.372;2023-06-26T04:37:24;86727.03;;;15.96;100.00
11678;BME280;5895;41.950;24.372;2023-06-26T04:39:51;86726.50;;;15.99;100.00
11678;BME280;5895;41.950;24.372;2023-06-26T04:42:18;86732.78;;;15.98;100.00
11678;BME280;5895;41.950;24.372;2023-06-26T04:44:47;86734.34;;;15.99;100.00
11678;BME280;5895;41.950;24.372;2023-06-26T04:47:14;86735.13;;;15.99;100.00
11678;BME280;5895;41.950;24.372;2023-06-26T04:49:42;86732.50;;;16.04;100.00
11678;BME280;5895;41.950;24.372;2023-06-26T04:52:13;86743.78;;;16.05;100.00
11678;BME280;5895;41.950;24.372;2023-06-26T04:54:40;86736.47;;;16.07;100.00
11678;BME280;5895;41.950;24.372;2023-06-26T04:57:07;86736.97;;;16.09;100.00
11678;BME280;5895;41.950;24.372;2023-06-26T04:59:37;86746.41;;;16.15;100.00
11678;BME280;5895;41.950;24.372;2023-06-26T05:02:04;86748.53;;;16.18;100.00
11678;BME280;5895;41.950;24.372;2023-06-26T05:04:32;86741.19;;;16.20;100.00
11678;BME280;5895;41.950;24.372;2023-06-26T05:06:59;86742.75;;;16.21;100.00
11678;BME280;5895;41.950;24.372;2023-06-26T05:09:27;86746.41;;;16.20;100.00
11678;BME280;5895;41.950;24.372;2023-06-26T05:11:54;86753.75;;;16.23;100.00
11678;BME280;5895;41.950;24.372;2023-06-26T05:14:22;86759.50;;;16.25;100.00
11678;BME280;5895;41.950;24.372;2023-06-26T05:16:49;86759.78;;;16.29;100.00
11678;BME280;5895;41.950;24.372;2023-06-26T05:19:16;86755.34;;;16.34;100.00
11678;BME280;5895;41.950;24.372;2023-06-26T05:21:43;86761.63;;;16.44;100.00
11678;BME280;5895;41.950;24.372;2023-06-26T05:24:11;86760.59;;;16.45;100.00
11678;BME280;5895;41.950;24.372;2023-06-26T05:26:42;86766.88;;;16.54;100.00
11678;BME280;5895;41.950;24.372;2023-06-26T05:29:09;86758.50;;;16.57;100.00
11678;BME280;5895;41.950;24.372;2023-06-26T05:31:40;86760.06;;;16.63;100.00
11678;BME280;5895;41.950;24.372;2023-06-26T05:34:09;86755.88;;;16.72;100.00
11678;BME280;5895;41.950;24.372;2023-06-26T05:36:38;86773.19;;;16.73;100.00
11678;BME280;5895;41.950;24.372;2023-06-26T05:39:06;86762.97;;;16.72;100.00
11678;BME280;5895;41.950;24.372;2023-06-26T05:41:34;86768.44;;;16.70;100.00
11678;BME280;5895;41.950;24.372;2023-06-26T05:44:02;86769.25;;;16.71;100.00
11678;BME280;5895;41.950;24.372;2023-06-26T05:46:30;86768.44;;;16.70;100.00
11678;BME280;5895;41.950;24.372;2023-06-26T05:48:57;86760.56;;;16.60;100.00
11678;BME280;5895;41.950;24.372;2023-06-26T05:51:24;86768.97;;;16.62;100.00
11678;BME280;5895;41.950;24.372;2023-06-26T05:53:52;86768.19;;;16.56;100.00
11678;BME280;5895;41.950;24.372;2023-06-26T05:56:20;86776.28;;;16.50;100.00
11678;BME280;5895;41.950;24.372;2023-06-26T05:58:48;86774.97;;;16.42;100.00
11678;BME280;5895;41.950;24.372;2023-06-26T06:01:17;86762.16;;;16.40;100.00
11678;BME280;5895;41.950;24.372;2023-06-26T06:03:44;86769.47;;;16.38;100.00
11678;BME280;5895;41.950;24.372;2023-06-26T06:06:11;86768.97;;;16.42;100.00
11678;BME280;5895;41.950;24.372;2023-06-26T06:08:38;86769.22;;;16.45;100.00
11678;BME280;5895;41.950;24.372;2023-06-26T06:11:06;86768.69;;;16.48;100.00
11678;BME280;5895;41.950;24.372;2023-06-26T06:13:33;86766.88;;;16.54;100.00
11678;BME280;5895;41.950;24.372;2023-06-26T06:16:00;86766.34;;;16.57;100.00
11678;BME280;5895;41.950;24.372;2023-06-26T06:18:29;86773.16;;;16.58;100.00
11678;BME280;5895;41.950;24.372;2023-06-26T06:20:56;86767.91;;;16.58;100.00
11678;BME280;5895;41.950;24.372;2023-06-26T06:23:23;86766.88;;;16.59;100.00
11678;BME280;5895;41.950;24.372;2023-06-26T06:25:50;86761.63;;;16.64;100.00
11678;BME280;5895;41.950;24.372;2023-06-26T06:28:18;86761.38;;;16.71;100.00
11678;BME280;5895;41.950;24.372;2023-06-26T06:30:45;86763.19;;;16.70;100.00
11678;BME280;5895;41.950;24.372;2023-06-26T06:33:13;86766.13;;;16.74;100.00
11678;BME280;5895;41.950;24.372;2023-06-26T06:35:41;86769.53;;;16.79;100.00
11678;BME280;5895;41.950;24.372;2023-06-26T06:38:09;86760.59;;;16.80;100.00
11678;BME280;5895;41.950;24.372;2023-06-26T06:40:36;86774.75;;;16.79;100.00
11678;BME280;5895;41.950;24.372;2023-06-26T06:43:03;86764.53;;;16.83;100.00
11678;BME280;5895;41.950;24.372;2023-06-26T06:45:30;86771.59;;;16.87;100.00
11678;BME280;5895;41.950;24.372;2023-06-26T06:47:57;86771.09;;;16.90;100.00
11678;BME280;5895;41.950;24.372;2023-06-26T06:50:24;86762.69;;;16.99;100.00
11678;BME280;5895;41.950;24.372;2023-06-26T06:52:53;86770.81;;;17.07;100.00
11678;BME280;5895;41.950;24.372;2023-06-26T06:55:20;86771.56;;;17.13;100.00
11678;BME280;5895;41.950;24.372;2023-06-26T06:57:47;86773.13;;;17.19;100.00
11678;BME280;5895;41.950;24.372;2023-06-26T07:00:15;86774.19;;;17.23;100.00
11678;BME280;5895;41.950;24.372;2023-06-26T07:02:44;86765.75;;;17.31;100.00
11678;BME280;5895;41.950;24.372;2023-06-26T07:05:12;86769.94;;;17.37;100.00
11678;BME280;5895;41.950;24.372;2023-06-26T07:07:39;86775.97;;;17.43;100.00
11678;BME280;5895;41.950;24.372;2023-06-26T07:10:10;86775.16;;;17.48;100.00
11678;BME280;5895;41.950;24.372;2023-06-26T07:12:38;86777.22;;;17.56;100.00
11678;BME280;5895;41.950;24.372;2023-06-26T07:15:06;86776.97;;;17.62;100.00
11678;BME280;5895;41.950;24.372;2023-06-26T07:17:34;86778.75;;;17.77;100.00
11678;BME280;5895;41.950;24.372;2023-06-26T07:20:04;86780.75;;;18.01;100.00
11678;BME280;5895;41.950;24.372;2023-06-26T07:22:33;86783.69;;;17.94;100.00
11678;BME280;5895;41.950;24.372;2023-06-26T07:25:00;86783.94;;;17.97;100.00
11678;BME280;5895;41.950;24.372;2023-06-26T07:27:29;86790.75;;;17.98;100.00
11678;BME280;5895;41.950;24.372;2023-06-26T07:29:56;86788.06;;;18.14;100.00
11678;BME280;5895;41.950;24.372;2023-06-26T07:32:24;86787.44;;;18.32;100.00
11678;BME280;5895;41.950;24.372;2023-06-26T07:34:51;86794.97;;;18.44;100.00
11678;BME280;5895;41.950;24.372;2023-06-26T07:37:18;86789.22;;;18.42;100.00
11678;BME280;5895;41.950;24.372;2023-06-26T07:39:45;86793.44;;;18.38;100.00
11678;BME280;5895;41.950;24.372;2023-06-26T07:42:12;86805.00;;;18.37;100.00
11678;BME280;5895;41.950;24.372;2023-06-26T07:44:41;86801.59;;;18.36;100.00
11678;BME280;5895;41.950;24.372;2023-06-26T07:47:08;86800.28;;;18.34;100.00
11678;BME280;5895;41.950;24.372;2023-06-26T07:49:35;86804.78;;;18.28;100.00
11678;BME280;5895;41.950;24.372;2023-06-26T07:52:05;86811.66;;;18.24;100.00
11678;BME280;5895;41.950;24.372;2023-06-26T07:54:32;86808.28;;;18.13;100.00
11678;BME280;5895;41.950;24.372;2023-06-26T07:57:01;86812.13;;;18.31;100.00
11678;BME280;5895;41.950;24.372;2023-06-26T07:59:29;86807.84;;;18.45;100.00
11678;BME280;5895;41.950;24.372;2023-06-26T08:01:58;86802.19;;;18.72;100.00
11678;BME280;5895;41.950;24.372;2023-06-26T08:04:28;86800.66;;;19.00;100.00
11678;BME280;5895;41.950;24.372;2023-06-26T08:06:57;86798.16;;;19.19;98.73
11678;BME280;5895;41.950;24.372;2023-06-26T08:09:27;86800.53;;;19.45;98.80
11678;BME280;5895;41.950;24.372;2023-06-26T08:11:54;86791.41;;;19.66;96.28
11678;BME280;5895;41.950;24.372;2023-06-26T08:14:22;86790.59;;;19.71;96.14
11678;BME280;5895;41.950;24.372;2023-06-26T08:16:49;86791.94;;;19.92;96.15
11678;BME280;5895;41.950;24.372;2023-06-26T08:19:18;86798.03;;;20.12;95.04
11678;BME280;5895;41.950;24.372;2023-06-26T08:21:46;86797.91;;;20.22;94.84
11678;BME280;5895;41.950;24.372;2023-06-26T08:24:13;86795.75;;;20.24;94.95
11678;BME280;5895;41.950;24.372;2023-06-26T08:26:41;86792.94;;;20.39;95.05
11678;BME280;5895;41.950;24.372;2023-06-26T08:29:09;86799.09;;;20.53;94.11
11678;BME280;5895;41.950;24.372;2023-06-26T08:31:36;86790.56;;;20.62;93.66
11678;BME280;5895;41.950;24.372;2023-06-26T08:34:04;86795.41;;;20.73;94.02
11678;BME280;5895;41.950;24.372;2023-06-26T08:36:33;86794.59;;;20.92;93.80
11678;BME280;5895;41.950;24.372;2023-06-26T08:39:00;86789.19;;;21.02;92.38
11678;BME280;5895;41.950;24.372;2023-06-26T08:41:28;86792.69;;;20.97;92.71
11678;BME280;5895;41.950;24.372;2023-06-26T08:43:55;86794.75;;;21.00;92.33
11678;BME280;5895;41.950;24.372;2023-06-26T08:46:22;86795.09;;;21.12;91.34
11678;BME280;5895;41.950;24.372;2023-06-26T08:48:55;86788.00;;;21.27;89.69
11678;BME280;5895;41.950;24.372;2023-06-26T08:51:24;86793.66;;;21.39;91.23
11678;BME280;5895;41.950;24.372;2023-06-26T08:53:58;86788.84;;;21.41;90.80
11678;BME280;5895;41.950;24.372;2023-06-26T08:56:28;86802.06;;;21.41;91.59
11678;BME280;5895;41.950;24.372;2023-06-26T08:58:58;86801.66;;;21.34;91.07
11678;BME280;5895;41.950;24.372;2023-06-26T09:01:25;86789.94;;;21.54;91.00
11678;BME280;5895;41.950;24.372;2023-06-26T09:03:52;86793.09;;;21.56;90.58
11678;BME280;5895;41.950;24.372;2023-06-26T09:06:20;86787.63;;;21.52;90.06
11678;BME280;5895;41.950;24.372;2023-06-26T09:08:51;86794.69;;;21.71;89.26
11678;BME280;5895;41.950;24.372;2023-06-26T09:11:20;86790.78;;;21.82;87.76
11678;BME280;5895;41.950;24.372;2023-06-26T09:13:47;86798.34;;;22.02;87.36
11678;BME280;5895;41.950;24.372;2023-06-26T09:16:14;86793.66;;;22.27;87.11
11678;BME280;5895;41.950;24.372;2023-06-26T09:18:42;86792.00;;;22.44;85.68
11678;BME280;5895;41.950;24.372;2023-06-26T09:21:09;86788.66;;;22.53;85.66
11678;BME280;5895;41.950;24.372;2023-06-26T09:23:37;86791.38;;;22.61;85.92
11678;BME280;5895;41.950;24.372;2023-06-26T09:26:06;86790.59;;;22.75;84.91
11678;BME280;5895;41.950;24.372;2023-06-26T09:28:35;86793.28;;;22.83;84.44
11678;BME280;5895;41.950;24.372;2023-06-26T09:31:03;86786.25;;;22.92;84.05
11678;BME280;5895;41.950;24.372;2023-06-26T09:33:33;86782.00;;;23.05;83.43
11678;BME280;5895;41.950;24.372;2023-06-26T09:36:05;86781.47;;;23.17;80.30
11678;BME280;5895;41.950;24.372;2023-06-26T09:38:34;86789.00;;;23.23;82.56
11678;BME280;5895;41.950;24.372;2023-06-26T09:41:01;86783.34;;;23.39;81.35
11678;BME280;5895;41.950;24.372;2023-06-26T09:43:29;86782.75;;;23.42;81.85
11678;BME280;5895;41.950;24.372;2023-06-26T09:45:58;86802.09;;;23.51;80.34
11678;BME280;5895;41.950;24.372;2023-06-26T09:48:25;86788.59;;;23.53;81.36
11678;BME280;5895;41.950;24.372;2023-06-26T09:50:53;86791.41;;;23.34;82.82
11678;BME280;5895;41.950;24.372;2023-06-26T09:53:20;86795.97;;;23.19;82.27
11678;BME280;5895;41.950;24.372;2023-06-26T09:55:47;86792.78;;;23.31;81.77
11678;BME280;5895;41.950;24.372;2023-06-26T09:58:15;86780.81;;;23.56;80.25
11678;BME280;5895;41.950;24.372;2023-06-26T10:00:43;86787.81;;;23.52;80.41
11678;BME280;5895;41.950;24.372;2023-06-26T10:03:12;86788.50;;;23.44;78.78
11678;BME280;5895;41.950;24.372;2023-06-26T10:05:40;86777.56;;;23.59;79.94
11678;BME280;5895;41.950;24.372;2023-06-26T10:08:08;86786.97;;;23.65;80.25
11678;BME280;5895;41.950;24.372;2023-06-26T10:10:37;86785.63;;;23.54;79.35
11678;BME280;5895;41.950;24.372;2023-06-26T10:13:08;86774.06;;;23.72;77.74
11678;BME280;5895;41.950;24.372;2023-06-26T10:15:37;86783.69;;;23.91;78.29
11678;BME280;5895;41.950;24.372;2023-06-26T10:18:05;86779.69;;;24.02;78.54
11678;BME280;5895;41.950;24.372;2023-06-26T10:20:34;86778.03;;;24.23;76.84
11678;BME280;5895;41.950;24.372;2023-06-26T10:23:02;86775.34;;;24.37;77.70
11678;BME280;5895;41.950;24.372;2023-06-26T10:25:31;86774.47;;;24.59;77.92
11678;BME280;5895;41.950;24.372;2023-06-26T10:28:00;86771.53;;;24.69;77.86
11678;BME280;5895;41.950;24.372;2023-06-26T10:30:31;86771.34;;;24.74;73.86
11678;BME280;5895;41.950;24.372;2023-06-26T10:33:00;86767.28;;;24.60;78.14
11678;BME280;5895;41.950;24.372;2023-06-26T10:35:27;86771.13;;;24.45;78.31
11678;BME280;5895;41.950;24.372;2023-06-26T10:38:02;86775.09;;;24.65;73.36
11678;BME280;5895;41.950;24.372;2023-06-26T10:40:41;86762.72;;;24.51;68.25
11678;BME280;5895;41.950;24.372;2023-06-26T10:43:09;86761.19;;;24.59;77.94
11678;BME280;5895;41.950;24.372;2023-06-26T10:45:40;86749.94;;;24.62;78.08
11678;BME280;5895;41.950;24.372;2023-06-26T10:48:09;86768.38;;;24.67;78.29
11678;BME280;5895;41.950;24.372;2023-06-26T10:50:36;86765.75;;;24.76;78.77
11678;BME280;5895;41.950;24.372;2023-06-26T10:53:09;86761.72;;;24.87;75.92
11678;BME280;5895;41.950;24.372;2023-06-26T10:55:37;86748.91;;;24.89;78.00
11678;BME280;5895;41.950;24.372;2023-06-26T10:58:04;86752.97;;;24.95;78.30
11678;BME280;5895;41.950;24.372;2023-06-26T11:00:31;86757.53;;;25.12;77.52
11678;BME280;5895;41.950;24.372;2023-06-26T11:02:59;86756.63;;;25.25;76.30
11678;BME280;5895;41.950;24.372;2023-06-26T11:05:28;86757.22;;;25.40;76.05
11678;BME280;5895;41.950;24.372;2023-06-26T11:08:05;86762.38;;;25.53;71.66
11678;BME280;5895;41.950;24.372;2023-06-26T11:10:49;86754.09;;;25.46;63.07
11678;BME280;5895;41.950;24.372;2023-06-26T11:13:17;86749.53;;;25.47;75.05
11678;BME280;5895;41.950;24.372;2023-06-26T11:15:45;86752.53;;;25.19;76.49
11678;BME280;5895;41.950;24.372;2023-06-26T11:18:13;86746.31;;;25.15;75.81
11678;BME280;5895;41.950;24.372;2023-06-26T11:20:40;86741.91;;;25.19;75.51
11678;BME280;5895;41.950;24.372;2023-06-26T11:23:08;86743.78;;;25.45;76.69
11678;BME280;5895;41.950;24.372;2023-06-26T11:25:36;86749.06;;;25.79;74.81
11678;BME280;5895;41.950;24.372;2023-06-26T11:28:05;86749.22;;;25.57;72.41
11678;BME280;5895;41.950;24.372;2023-06-26T11:30:32;86754.13;;;25.20;75.29
11678;BME280;5895;41.950;24.372;2023-06-26T11:33:04;86764.50;;;24.82;72.95
11678;BME280;5895;41.950;24.372;2023-06-26T11:35:31;86763.22;;;24.53;77.80
11678;BME280;5895;41.950;24.372;2023-06-26T11:37:59;86761.53;;;24.26;78.88
11678;BME280;5895;41.950;24.372;2023-06-26T11:40:30;86761.03;;;24.16;79.05
11678;BME280;5895;41.950;24.372;2023-06-26T11:42:58;86756.97;;;24.18;78.55
11678;BME280;5895;41.950;24.372;2023-06-26T11:45:30;86752.75;;;24.57;74.85
11678;BME280;5895;41.950;24.372;2023-06-26T11:47:57;86749.66;;;24.72;76.98
11678;BME280;5895;41.950;24.372;2023-06-26T11:50:25;86756.50;;;24.56;76.80
11678;BME280;5895;41.950;24.372;2023-06-26T11:52:53;86753.91;;;24.34;77.75
11678;BME280;5895;41.950;24.372;2023-06-26T11:55:21;86756.38;;;24.21;77.91
11678;BME280;5895;41.950;24.372;2023-06-26T11:57:49;86758.56;;;24.19;77.69
11678;BME280;5895;41.950;24.372;2023-06-26T12:00:17;86757.31;;;24.25;77.39
11678;BME280;5895;41.950;24.372;2023-06-26T12:02:46;86749.31;;;24.08;77.83
11678;BME280;5895;41.950;24.372;2023-06-26T12:05:14;86750.81;;;24.00;77.89
11678;BME280;5895;41.950;24.372;2023-06-26T12:07:42;86746.94;;;24.38;77.06
11678;BME280;5895;41.950;24.372;2023-06-26T12:10:12;86747.16;;;24.67;76.87
11678;BME280;5895;41.950;24.372;2023-06-26T12:12:41;86728.63;;;24.93;75.47
11678;BME280;5895;41.950;24.372;2023-06-26T12:15:13;86730.97;;;25.12;74.86
11678;BME280;5895;41.950;24.372;2023-06-26T12:17:41;86735.03;;;25.18;74.86
11678;BME280;5895;41.950;24.372;2023-06-26T12:20:18;86741.41;;;25.00;67.35
11678;BME280;5895;41.950;24.372;2023-06-26T12:22:47;86741.72;;;24.81;74.68
11678;BME280;5895;41.950;24.372;2023-06-26T12:25:14;86738.75;;;24.91;74.27
11678;BME280;5895;41.950;24.372;2023-06-26T12:27:45;86737.34;;;25.02;72.07
11678;BME280;5895;41.950;24.372;2023-06-26T12:30:12;86738.13;;;24.77;74.56
11678;BME280;5895;41.950;24.372;2023-06-26T12:32:44;86740.28;;;24.66;71.25
11678;BME280;5895;41.950;24.372;2023-06-26T12:35:12;86749.59;;;24.38;75.80
11678;BME280;5895;41.950;24.372;2023-06-26T12:37:41;86736.22;;;24.12;74.42
11678;BME280;5895;41.950;24.372;2023-06-26T12:40:17;86728.97;;;23.86;70.51
11678;BME280;5895;41.950;24.372;2023-06-26T12:42:45;86736.69;;;23.74;76.86
11678;BME280;5895;41.950;24.372;2023-06-26T12:45:13;86738.81;;;23.63;77.30
11678;BME280;5895;41.950;24.372;2023-06-26T12:47:41;86745.84;;;23.45;78.50
11678;BME280;5895;41.950;24.372;2023-06-26T12:50:08;86748.09;;;23.30;78.83
11678;BME280;5895;41.950;24.372;2023-06-26T12:52:35;86740.97;;;23.39;78.88
11678;BME280;5895;41.950;24.372;2023-06-26T12:55:05;86747.81;;;23.40;77.56
11678;BME280;5895;41.950;24.372;2023-06-26T12:57:32;86749.66;;;23.31;78.48